Aviation Digital Data Service (ADDS)

Output produced by METARs form (0958 UTC 19 January 2019)
found at http://www.aviationweather.gov/metar/data/
 
KALM 190955Z AUTO 34009KT 10SM CLR 00/M08 A3028 RMK AO2
KABQ 190952Z 33007KT 10SM CLR 01/M06 A3032 RMK AO2 SLP260 T00111061
KABQ 190520Z 1906/2006 34010KT P6SM FEW080 
     FM191200 36006KT P6SM SKC 
     FM192000 30005KT P6SM SCT070 
     FM200100 35006KT P6SM SKC
       
KAEG 190955Z AUTO 30011KT 10SM CLR M01/M06 A3029 RMK AO2 T10111061
KAEG 190520Z 1906/2006 33014G21KT P6SM FEW080 
     FM190900 33011KT P6SM SKC 
     FM191500 32006KT P6SM FEW080
       
KAXX 190955Z AUTO 00000KT 10SM M16/M17 A3023 RMK AO2 T11641175
KATS 190955Z AUTO 34009KT 10SM CLR 02/M03 A3027 RMK AO2
KCNM 190953Z AUTO 34008KT 10SM CLR 02/M03 A3026 RMK AO2 SLP234 T00171033
KCNM 190520Z 1906/2006 33015G22KT P6SM SKC 
     FM191200 29009KT P6SM SKC
       
KCAO 190955Z AUTO 31005KT 10SM CLR M04/M06 A3016 RMK AO2 SLP234 T10391061
KCVN 190956Z AUTO 32011KT 10SM CLR M01/M03 A3020 RMK AO2 SLP232 T10061028 FZRANO
KDMN 190953Z AUTO 00000KT 10SM CLR 02/M10 A3030 RMK AO2 SLP231 T00171100
KDMN 190525Z 1906/2006 34008KT P6SM FEW250 
     FM191700 19005KT P6SM FEW250
       
KFMN 190953Z AUTO 00000KT 10SM CLR M02/M06 A3032 RMK AO2 SLP281 T10171056
KFMN 190520Z 1906/2006 29007KT P6SM SKC 
     FM191200 08005KT P6SM SKC 
     FM191900 28012G20KT P6SM FEW080 
     FM200100 27008KT P6SM SKC
       
KGUP 190953Z AUTO 03003KT 10SM CLR M05/M07 A3036 RMK AO2 SLP301 T10501072
KGUP 190520Z 1906/2006 30007KT P6SM FEW100 
     FM190700 VRB03KT P6SM SKC 
     FM192100 24007KT P6SM FEW080 
     FM200100 VRB03KT P6SM SKC
       
KGNT 190955Z AUTO 00000KT 10SM CLR M04/M08 A3035 RMK AO2 T10421080
KHOB 190955Z AUTO 32008KT 10SM CLR 01/M03 A3023 RMK AO2
KHOB 190520Z 1906/2006 33020G28KT P6SM BKN080 
     FM191000 32015G23KT P6SM SKC 
     FM192000 31009KT P6SM SKC
       
KLRU 190935Z AUTO 35007KT 10SM CLR 05/M07 A3030 RMK AO2 T00481070
KLRU 190525Z 1906/2006 33008KT P6SM FEW250 
     FM191800 25005KT P6SM FEW250
       
KLVS 190953Z AUTO 31004KT 10SM CLR M05/M07 A3020 RMK AO2 SLP219 T10501072
KLVS 190520Z 1906/2006 02010KT P6SM SCT070 
     FM190900 31008KT P6SM FEW080 
     FM191800 20011KT P6SM FEW090 
     FM200100 VRB06KT P6SM SKC
       
KLAM 190935Z AUTO 00000KT 10SM SCT085 M04/M07 A3026 RMK AO2 T10431072
K0E0 190955Z AUTO 28009KT 10SM CLR M01/M05 A3028 RMK AO2 T10141048
KRTN 190953Z AUTO 29004KT 10SM CLR M06/M08 A3017 RMK AO2 SLP233 T10561083 $
KROW 190951Z 34005KT 10SM BLDU CLR 03/M03 A3024 RMK AO2 SLP217 T00331033
KROW 190520Z 1906/2006 35015KT P6SM SCT080 
     FM190900 32009KT P6SM SKC 
     FM191500 VRB05KT P6SM SKC 
     FM192100 15006KT P6SM SKC 
     FM200100 21006KT P6SM SKC
       
KSRR 190855Z AUTO 28007KT 10SM CLR M02/M09 A3026 RMK AO2
KSAF 190953Z AUTO 00000KT 10SM CLR M02/M07 A3025 RMK AO2 SLP233 T10221067
KSAF 190520Z 1906/2006 35008KT P6SM SCT100 
     FM191000 36011G19KT P6SM FEW080 
     FM192000 31009KT P6SM SCT080 
     FM200100 35007KT P6SM SKC
       
KSXU 190955Z AUTO 00000KT 10SM CLR M01/M04 A3023 RMK AO2 T10151039
KSVC 190955Z AUTO 36013KT 10SM CLR M01/M08 A3031 RMK AO2 T10151077
KONM 190935Z AUTO 35009G22KT 10SM CLR 03/M08 A3030 RMK AO2 T00271076
KSKX 190956Z AUTO 09004KT 10SM CLR M11/M13 A3030 RMK AO2 SLP307 T11111133 FZRANO $
KTCS 190953Z AUTO 32004KT 10SM CLR 03/M08 A3030 RMK AO2 SLP236 T00281078
KTCS 190525Z 1906/2006 32014G24KT P6SM SKC 
     FM190800 33009KT P6SM FEW250 
     FM191800 15005KT P6SM FEW250
       
KTCC 190953Z AUTO 32007KT 10SM CLR M01/M04 A3019 RMK AO2 SLP214 T10111044
KTCC 190520Z 1906/2006 36015KT P6SM BKN120 
     FM191000 29007KT P6SM SKC 
     FM192100 20006KT P6SM SKC